Time;durP1;ratioP1;P1;durP2;ratioP2;P2;SDS_P1;SDS_P2;PMS_P1;PMS_P2;Temp;Humidity;BMP_temperature;BMP_pressure;BME280_temperature;BME280_humidity;BME280_pressure;Samples;Min_cycle;Max_cycle;Signal;HPM_P1;HPM_P2
2021/11/17 02:28:14;;;;;;;16.95;13.60;;;17.90;57.70;;;;;;4967028;28;20035;-56
2021/11/17 02:31:12;;;;;;;15.32;13.25;;;18.00;57.80;;;;;;4992474;28;20403;-55
2021/11/17 02:34:24;;;;;;;16.58;13.40;;;18.00;57.70;;;;;;4993498;28;20058;-58
2021/11/17 02:37:38;;;;;;;15.68;13.65;;;18.00;57.70;;;;;;5005724;28;20038;-59
2021/11/17 02:40:30;;;;;;;15.63;12.68;;;18.10;57.70;;;;;;4943832;28;20055;-58
2021/11/17 02:43:05;;;;;;;14.85;12.45;;;18.00;57.60;;;;;;4986745;28;20128;-56
2021/11/17 02:45:44;;;;;;;16.75;13.60;;;18.10;57.60;;;;;;4986661;28;20136;-59
2021/11/17 02:48:35;;;;;;;15.25;13.70;;;18.00;57.60;;;;;;4989919;28;20484;-56
2021/11/17 02:51:31;;;;;;;13.93;12.07;;;18.00;57.60;;;;;;4966930;28;20035;-60
2021/11/17 02:54:19;;;;;;;18.05;14.38;;;18.00;57.60;;;;;;4966439;28;20039;-58
2021/11/17 02:57:02;;;;;;;15.57;13.07;;;18.00;57.70;;;;;;4985142;28;20076;-60
2021/11/17 02:59:33;;;;;;;14.77;12.88;;;18.00;57.60;;;;;;4991960;28;20031;-58
2021/11/17 03:02:23;;;;;;;18.15;14.13;;;18.10;57.70;;;;;;4986330;28;20097;-57
2021/11/17 03:05:09;;;;;;;15.63;13.82;;;18.00;57.60;;;;;;4985035;28;20057;-59
2021/11/17 03:07:59;;;;;;;15.18;13.13;;;18.10;57.60;;;;;;4985854;28;20062;-56
2021/11/17 03:10:56;;;;;;;16.55;13.90;;;18.10;57.60;;;;;;4982607;28;20125;-59
2021/11/17 03:13:40;;;;;;;17.30;13.25;;;18.00;57.50;;;;;;4983062;28;20026;-58
2021/11/17 03:16:21;;;;;;;16.42;14.57;;;18.00;57.50;;;;;;4997155;28;20450;-58
2021/11/17 03:18:46;;;;;;;16.92;15.15;;;18.00;57.50;;;;;;4984675;28;20043;-57
2021/11/17 03:21:20;;;;;;;16.40;13.75;;;18.00;57.50;;;;;;5005135;28;20037;-58
2021/11/17 03:24:11;;;;;;;17.60;13.70;;;18.00;57.50;;;;;;4978761;28;20029;-59
2021/11/17 03:27:02;;;;;;;16.52;13.90;;;18.00;57.60;;;;;;4998037;28;20061;-58
2021/11/17 03:29:54;;;;;;;15.70;13.40;;;18.00;57.50;;;;;;5002240;28;20038;-57
2021/11/17 03:32:57;;;;;;;15.45;13.00;;;18.00;57.60;;;;;;4991847;28;20049;-59
2021/11/17 03:35:28;;;;;;;14.27;12.77;;;18.00;57.60;;;;;;4988013;28;20030;-58
2021/11/17 03:38:17;;;;;;;15.93;14.05;;;18.00;57.60;;;;;;4986159;28;20376;-58
2021/11/17 03:40:53;;;;;;;17.20;13.57;;;17.90;57.60;;;;;;4974299;28;20060;-57
2021/11/17 03:43:41;;;;;;;17.95;14.82;;;17.90;57.70;;;;;;4995846;28;20096;-59
2021/11/17 03:46:31;;;;;;;15.32;13.57;;;17.90;57.60;;;;;;4986681;28;20039;-58
2021/11/17 03:49:03;;;;;;;16.45;14.65;;;17.90;57.70;;;;;;4985394;28;20451;-59
2021/11/17 03:51:49;;;;;;;16.83;14.32;;;17.90;57.70;;;;;;4985649;28;20034;-59
2021/11/17 03:54:34;;;;;;;17.42;14.02;;;17.90;57.70;;;;;;4985461;28;20027;-60
2021/11/17 03:57:18;;;;;;;17.08;14.50;;;17.90;57.70;;;;;;4982561;28;20113;-57
2021/11/17 04:00:15;;;;;;;17.58;14.50;;;17.80;57.70;;;;;;4984037;28;20027;-59
2021/11/17 04:02:53;;;;;;;17.02;14.02;;;17.80;57.70;;;;;;4981222;28;20125;-59
2021/11/17 04:05:47;;;;;;;16.73;15.00;;;17.80;57.70;;;;;;4994009;28;20395;-60
2021/11/17 04:08:21;;;;;;;16.95;14.57;;;17.80;57.70;;;;;;5004702;28;20041;-55
2021/11/17 04:11:08;;;;;;;19.13;14.97;;;17.80;57.70;;;;;;4988740;23;20147;-59
2021/11/17 04:13:58;;;;;;;17.48;14.27;;;17.80;57.70;;;;;;4986524;28;20137;-60
2021/11/17 04:16:40;;;;;;;18.35;14.88;;;17.80;57.80;;;;;;4988968;28;20030;-58
2021/11/17 04:19:36;;;;;;;17.40;15.05;;;17.70;57.70;;;;;;4961644;28;20034;-59
2021/11/17 04:22:25;;;;;;;17.67;14.85;;;17.80;57.80;;;;;;4961949;28;20147;-60
2021/11/17 04:25:16;;;;;;;18.75;15.00;;;17.80;57.80;;;;;;4958752;28;20038;-61
2021/11/17 04:27:41;;;;;;;19.15;15.30;;;17.80;58.40;;;;;;4956390;28;20035;-59
2021/11/17 04:30:27;;;;;;;17.77;14.43;;;17.80;57.80;;;;;;4962965;28;20038;-59
2021/11/17 04:33:21;;;;;;;19.23;15.13;;;17.80;57.70;;;;;;4964097;28;20606;-60
2021/11/17 04:36:10;;;;;;;18.58;14.77;;;17.80;57.70;;;;;;4961673;28;20071;-59
2021/11/17 04:38:54;;;;;;;19.02;16.42;;;17.80;57.70;;;;;;4962356;28;20090;-58
2021/11/17 04:41:27;;;;;;;18.92;15.15;;;17.80;57.60;;;;;;4956158;28;20039;-61
2021/11/17 04:43:55;;;;;;;17.92;15.30;;;17.80;57.70;;;;;;4964188;28;20110;-59
2021/11/17 04:46:42;;;;;;;19.77;15.48;;;17.80;57.60;;;;;;4963141;28;20756;-59
2021/11/17 04:49:20;;;;;;;18.35;14.98;;;17.80;57.60;;;;;;4962664;28;20110;-61
2021/11/17 04:51:46;;;;;;;19.00;15.63;;;17.80;57.60;;;;;;4963865;28;20030;-57
2021/11/17 04:54:45;;;;;;;18.67;15.25;;;17.80;57.60;;;;;;4959855;28;20084;-59
2021/11/17 04:57:28;;;;;;;19.65;15.20;;;17.80;57.60;;;;;;4991055;28;20102;-59
2021/11/17 05:00:09;;;;;;;20.52;15.48;;;17.80;57.50;;;;;;4983534;28;20034;-59
2021/11/17 05:03:03;;;;;;;20.08;15.30;;;17.80;57.50;;;;;;4998688;28;20057;-60
2021/11/17 05:05:51;;;;;;;18.50;15.40;;;17.80;57.50;;;;;;4990810;28;20037;-58
2021/11/17 05:08:41;;;;;;;19.83;15.00;;;17.90;57.50;;;;;;4994364;28;20042;-58
2021/11/17 05:11:06;;;;;;;19.95;15.60;;;17.90;57.50;;;;;;4997229;28;20523;-58
2021/11/17 05:13:43;;;;;;;22.10;16.27;;;17.90;57.50;;;;;;4990598;28;20040;-60
2021/11/17 05:16:30;;;;;;;21.38;16.15;;;17.90;57.40;;;;;;4987856;28;20377;-61
2021/11/17 05:19:11;;;;;;;19.23;15.60;;;17.90;57.40;;;;;;4987438;28;20137;-59
2021/11/17 05:21:54;;;;;;;20.98;16.52;;;17.90;57.40;;;;;;4969476;28;20417;-58
2021/11/17 05:24:39;;;;;;;20.27;15.60;;;17.90;57.40;;;;;;4956397;28;20401;-59
2021/11/17 05:27:05;;;;;;;19.67;15.80;;;17.90;57.30;;;;;;4961288;28;20070;-57
2021/11/17 05:30:02;;;;;;;22.33;16.48;;;17.90;57.30;;;;;;4963302;28;20023;-61
2021/11/17 05:32:52;;;;;;;19.40;14.70;;;17.90;57.30;;;;;;4962636;28;20127;-58
2021/11/17 05:35:34;;;;;;;20.33;15.93;;;17.90;57.30;;;;;;4983172;28;20036;-63
2021/11/17 05:38:07;;;;;;;21.27;16.90;;;18.00;57.30;;;;;;4964230;28;20034;-58
2021/11/17 05:40:57;;;;;;;20.70;16.42;;;17.90;57.20;;;;;;4961922;28;20639;-56
2021/11/17 05:43:51;;;;;;;20.67;15.32;;;17.90;57.20;;;;;;4966290;28;20133;-60
2021/11/17 05:46:26;;;;;;;20.00;15.77;;;18.00;57.30;;;;;;4951534;28;20166;-59
2021/11/17 05:49:07;;;;;;;20.75;16.08;;;17.90;57.40;;;;;;4971081;28;20260;-58
2021/11/17 05:51:40;;;;;;;22.42;15.80;;;17.90;57.20;;;;;;4985450;28;20026;-59
2021/11/17 05:54:22;;;;;;;22.73;16.58;;;17.90;57.10;;;;;;4957246;28;20035;-58
2021/11/17 05:57:14;;;;;;;20.60;15.88;;;18.00;57.20;;;;;;4966005;28;20093;-59
2021/11/17 06:00:04;;;;;;;20.98;16.65;;;18.00;57.20;;;;;;4999158;28;20022;-59
2021/11/17 06:02:56;;;;;;;21.60;16.80;;;18.00;57.20;;;;;;4962419;28;20035;-57
2021/11/17 06:05:21;;;;;;;21.38;16.45;;;18.00;57.20;;;;;;4963735;28;20052;-57
2021/11/17 06:07:47;;;;;;;23.35;17.27;;;18.00;57.10;;;;;;4966296;28;20113;-58
2021/11/17 06:10:16;;;;;;;22.73;16.05;;;18.00;57.20;;;;;;4965571;28;20039;-59
2021/11/17 06:12:42;;;;;;;22.75;17.13;;;18.00;57.10;;;;;;4954253;28;20714;-61
2021/11/17 06:15:08;;;;;;;21.77;16.45;;;18.00;57.10;;;;;;4972212;28;21533;-58
2021/11/17 06:17:33;;;;;;;21.27;15.90;;;18.00;57.10;;;;;;4969345;28;20030;-58
2021/11/17 06:19:59;;;;;;;24.77;17.10;;;18.00;57.10;;;;;;4970281;28;20082;-59
2021/11/17 06:22:27;;;;;;;21.52;16.42;;;18.00;57.10;;;;;;4994585;28;20317;-56
2021/11/17 06:24:52;;;;;;;21.35;15.93;;;18.00;57.10;;;;;;4978165;28;20119;-58
2021/11/17 06:27:20;;;;;;;25.95;17.83;;;18.00;57.20;;;;;;4986712;28;20025;-59
2021/11/17 06:29:47;;;;;;;21.17;16.05;;;18.00;57.20;;;;;;4989132;28;20589;-58
2021/11/17 06:32:13;;;;;;;26.60;17.45;;;18.00;57.20;;;;;;4988783;28;20448;-60
2021/11/17 06:34:40;;;;;;;26.10;17.58;;;18.00;57.20;;;;;;4990362;28;20073;-58
2021/11/17 06:37:11;;;;;;;26.10;18.02;;;18.00;57.30;;;;;;5000573;28;20029;-60
2021/11/17 06:39:37;;;;;;;29.33;18.20;;;18.00;57.30;;;;;;4991639;28;20054;-58
2021/11/17 06:42:05;;;;;;;24.02;17.92;;;18.00;57.40;;;;;;4985033;28;20152;-58
2021/11/17 06:44:31;;;;;;;27.67;18.20;;;18.00;57.50;;;;;;4994329;28;20041;-56
2021/11/17 06:46:57;;;;;;;27.73;18.92;;;18.00;57.60;;;;;;4990744;28;20031;-57
2021/11/17 06:49:22;;;;;;;29.27;17.40;;;18.00;57.60;;;;;;4986237;28;20092;-61
2021/11/17 06:51:48;;;;;;;31.20;18.25;;;18.00;57.60;;;;;;4995896;28;20037;-61
2021/11/17 06:54:13;;;;;;;23.58;16.65;;;18.00;58.30;;;;;;4966250;28;20035;-58
2021/11/17 06:56:39;;;;;;;28.10;17.27;;;18.00;57.60;;;;;;4966234;28;20563;-58
2021/11/17 06:59:05;;;;;;;26.67;17.20;;;18.00;57.60;;;;;;4948298;28;20110;-59
2021/11/17 07:01:30;;;;;;;22.95;16.23;;;18.00;57.60;;;;;;4948396;28;20042;-59
2021/11/17 07:03:56;;;;;;;25.85;17.08;;;18.00;57.50;;;;;;4966020;28;20086;-57
2021/11/17 07:06:21;;;;;;;28.42;16.65;;;18.00;57.50;;;;;;4948457;28;20489;-57
2021/11/17 07:08:47;;;;;;;26.65;17.50;;;18.00;57.50;;;;;;4932825;28;20143;-60
2021/11/17 07:11:12;;;;;;;26.90;16.67;;;18.00;57.50;;;;;;4966589;28;20400;-60
2021/11/17 07:13:38;;;;;;;26.30;15.90;;;17.90;57.40;;;;;;4949407;28;20031;-58
2021/11/17 07:16:04;;;;;;;25.83;16.77;;;18.00;57.50;;;;;;4948902;28;20031;-59
2021/11/17 07:18:29;;;;;;;25.63;16.85;;;18.00;57.50;;;;;;4966843;28;20451;-60
2021/11/17 07:20:55;;;;;;;26.70;16.27;;;17.90;57.40;;;;;;4948626;28;20113;-58
2021/11/17 07:23:21;;;;;;;26.90;17.13;;;17.90;57.40;;;;;;4084661;28;10000251;-59
2021/11/17 07:25:46;;;;;;;22.73;15.18;;;18.00;57.50;;;;;;4965611;28;20027;-55
2021/11/17 07:28:11;;;;;;;24.83;15.20;;;18.00;57.50;;;;;;4964905;28;20046;-58
2021/11/17 07:30:38;;;;;;;22.38;15.65;;;18.00;57.60;;;;;;4963769;28;20505;-58
2021/11/17 07:33:04;;;;;;;28.13;15.95;;;17.90;57.60;;;;;;4965805;28;20038;-60
2021/11/17 07:35:31;;;;;;;27.20;15.80;;;17.90;57.60;;;;;;4981897;28;20030;-61
2021/11/17 07:38:03;;;;;;;24.33;14.20;;;17.80;57.80;;;;;;4981837;28;20058;-56
2021/11/17 07:40:33;;;;;;;27.10;15.90;;;17.80;57.90;;;;;;4966408;28;20456;-57
2021/11/17 07:42:58;;;;;;;23.63;15.55;;;17.80;57.90;;;;;;4965467;28;20042;-58
2021/11/17 07:45:24;;;;;;;22.83;16.02;;;17.80;57.90;;;;;;4966970;28;20027;-61
2021/11/17 07:47:50;;;;;;;25.63;15.02;;;17.80;58.00;;;;;;4967379;28;20038;-62
2021/11/17 07:50:16;;;;;;;24.60;15.63;;;17.80;58.10;;;;;;4966505;28;20035;-59
2021/11/17 07:52:41;;;;;;;24.10;14.95;;;17.80;58.30;;;;;;4966898;28;20039;-56
2021/11/17 07:55:09;;;;;;;24.88;15.13;;;17.70;58.20;;;;;;4967491;28;20039;-61
2021/11/17 07:57:35;;;;;;;22.38;13.43;;;17.70;58.40;;;;;;4966451;28;20066;-59
2021/11/17 08:00:01;;;;;;;22.98;13.38;;;17.70;58.40;;;;;;4964966;28;20038;-60
2021/11/17 08:02:26;;;;;;;22.08;13.52;;;17.70;58.60;;;;;;4965413;28;20566;-60
2021/11/17 08:04:52;;;;;;;23.48;14.38;;;17.70;58.70;;;;;;4979256;28;20465;-57
2021/11/17 08:07:19;;;;;;;20.67;13.18;;;17.70;58.70;;;;;;4981249;28;20050;-57
2021/11/17 08:09:46;;;;;;;22.30;13.35;;;17.70;58.80;;;;;;4979923;28;20038;-57
2021/11/17 08:12:12;;;;;;;22.40;12.85;;;17.70;58.80;;;;;;4980652;28;20484;-58
2021/11/17 08:14:37;;;;;;;22.48;13.02;;;17.70;58.90;;;;;;4966283;28;20110;-55
2021/11/17 08:17:04;;;;;;;18.88;12.45;;;17.60;58.80;;;;;;4968488;28;20749;-60
2021/11/17 08:19:29;;;;;;;20.73;11.88;;;17.70;58.80;;;;;;4964040;28;20035;-57
2021/11/17 08:21:55;;;;;;;19.30;11.82;;;17.70;58.90;;;;;;4968333;28;20043;-58
2021/11/17 08:24:21;;;;;;;24.23;12.73;;;17.70;58.90;;;;;;4965983;28;20399;-58
2021/11/17 08:26:47;;;;;;;15.95;10.90;;;17.70;58.90;;;;;;4964913;28;20035;-61
2021/11/17 08:29:14;;;;;;;23.88;12.93;;;17.80;59.00;;;;;;4964708;28;20393;-56
2021/11/17 08:31:40;;;;;;;16.75;10.95;;;17.80;59.10;;;;;;4962108;28;20034;-56
2021/11/17 08:34:06;;;;;;;18.42;11.52;;;17.80;59.10;;;;;;4964627;28;20026;-59
2021/11/17 08:36:32;;;;;;;17.58;11.77;;;17.80;59.10;;;;;;4964192;28;20085;-60
2021/11/17 08:38:57;;;;;;;15.35;11.30;;;17.80;59.10;;;;;;4964407;28;20716;-59
2021/11/17 08:41:25;;;;;;;18.52;11.73;;;17.80;59.20;;;;;;4964356;28;20054;-57
2021/11/17 08:43:51;;;;;;;18.13;11.27;;;17.80;59.20;;;;;;4959587;28;20088;-59
2021/11/17 08:46:16;;;;;;;15.73;12.27;;;17.80;59.10;;;;;;4985143;28;20026;-60
2021/11/17 08:48:42;;;;;;;15.27;10.82;;;17.80;59.20;;;;;;4956584;28;20059;-59
2021/11/17 08:51:10;;;;;;;19.27;11.43;;;17.90;59.30;;;;;;4968681;28;20408;-60
2021/11/17 08:53:37;;;;;;;16.85;11.45;;;17.90;59.20;;;;;;4059560;28;10000714;-60
2021/11/17 08:56:03;;;;;;;16.00;11.05;;;17.90;59.20;;;;;;4938354;28;20027;-59
2021/11/17 08:58:29;;;;;;;17.42;10.95;;;17.80;59.20;;;;;;4963671;28;20033;-56
2021/11/17 09:00:54;;;;;;;15.68;10.32;;;17.90;59.20;;;;;;4964907;28;20031;-57
2021/11/17 09:03:20;;;;;;;15.80;10.52;;;17.90;59.20;;;;;;4980030;28;20396;-59
2021/11/17 09:05:48;;;;;;;14.90;10.40;;;17.90;59.10;;;;;;4963975;28;20411;-60
2021/11/17 09:08:14;;;;;;;17.27;10.35;;;17.90;59.20;;;;;;4093786;28;10000969;-60
2021/11/17 09:10:43;;;;;;;17.10;10.57;;;17.90;59.10;;;;;;4964386;28;20416;-59
2021/11/17 09:13:09;;;;;;;13.40;10.38;;;17.90;59.20;;;;;;4975484;28;20049;-60
2021/11/17 09:15:37;;;;;;;13.77;10.52;;;17.90;59.20;;;;;;4983799;28;20452;-61
2021/11/17 09:18:03;;;;;;;16.27;10.43;;;17.90;59.10;;;;;;4980445;28;20122;-60
2021/11/17 09:20:29;;;;;;;15.32;10.38;;;17.90;59.20;;;;;;4964163;28;20027;-59
2021/11/17 09:22:54;;;;;;;13.60;10.00;;;18.00;59.20;;;;;;4966488;28;20046;-59
2021/11/17 09:25:20;;;;;;;13.68;9.27;;;17.90;59.20;;;;;;4968188;28;20037;-56
2021/11/17 09:27:46;;;;;;;13.80;9.88;;;18.00;59.20;;;;;;4967745;28;20781;-57
2021/11/17 09:30:14;;;;;;;14.88;10.30;;;18.00;59.20;;;;;;4969205;28;20083;-59
2021/11/17 09:32:39;;;;;;;16.48;10.10;;;18.00;59.30;;;;;;4984110;28;20109;-61
2021/11/17 09:35:07;;;;;;;16.13;9.98;;;18.00;59.30;;;;;;4969487;28;20517;-64
2021/11/17 09:37:33;;;;;;;15.35;10.45;;;18.10;59.40;;;;;;4968332;28;20042;-58
2021/11/17 09:39:58;;;;;;;15.38;10.02;;;18.10;59.40;;;;;;4969179;28;20023;-58
2021/11/17 09:42:24;;;;;;;14.88;9.90;;;18.10;59.40;;;;;;4967692;28;21407;-59
2021/11/17 09:44:49;;;;;;;17.42;9.45;;;18.10;59.40;;;;;;4948555;28;20038;-60
2021/11/17 09:47:17;;;;;;;21.00;10.30;;;18.10;59.50;;;;;;4967715;28;20114;-57
2021/11/17 09:50:08;;;;;;;15.88;10.35;;;18.10;59.40;;;;;;4965503;28;20118;-57
2021/11/17 09:52:36;;;;;;;15.55;9.95;;;18.10;59.40;;;;;;4965462;28;20904;-61
2021/11/17 09:55:20;;;;;;;13.68;8.98;;;18.10;59.30;;;;;;4967280;28;20089;-59
2021/11/17 09:57:48;;;;;;;14.20;9.52;;;18.10;59.30;;;;;;4958131;28;20368;-59
2021/11/17 10:00:39;;;;;;;14.95;8.05;;;18.10;59.30;;;;;;4959773;28;20031;-58
2021/11/17 10:03:14;;;;;;;12.55;7.82;;;18.10;59.30;;;;;;4986499;28;20128;-59
2021/11/17 10:13:58;;;;;;;16.92;8.55;;;18.10;59.20;;;;;;5005384;23;20053;-62
2021/11/17 10:16:24;;;;;;;10.80;8.18;;;18.10;59.10;;;;;;5001076;28;20022;-62
2021/11/17 10:19:15;;;;;;;14.25;8.48;;;18.10;59.00;;;;;;5010473;28;20311;-61
2021/11/17 10:21:41;;;;;;;10.43;7.97;;;18.10;59.00;;;;;;5001221;28;20129;-60
2021/11/17 10:24:10;;;;;;;15.40;8.15;;;18.10;58.80;;;;;;5004925;28;20097;-62
2021/11/17 10:26:53;;;;;;;10.93;7.45;;;18.10;58.70;;;;;;4990650;28;20027;-62
2021/11/17 10:29:32;;;;;;;12.57;7.30;;;18.20;58.70;;;;;;4988854;28;20241;-61
2021/11/17 10:32:25;;;;;;;12.30;7.57;;;18.20;58.30;;;;;;4990841;28;20484;-61
2021/11/17 10:34:59;;;;;;;13.02;7.05;;;18.20;58.20;;;;;;4988314;28;20543;-62
2021/11/17 10:37:25;;;;;;;11.57;7.10;;;18.20;58.20;;;;;;4982732;28;20026;-62
2021/11/17 10:39:50;;;;;;;11.55;7.38;;;18.20;58.10;;;;;;4989380;28;20406;-62
2021/11/17 10:42:19;;;;;;;8.90;6.70;;;18.20;58.10;;;;;;4989463;28;20687;-61
2021/11/17 10:44:52;;;;;;;11.43;6.75;;;18.20;58.10;;;;;;4990093;28;20377;-61
2021/11/17 10:47:27;;;;;;;13.25;7.18;;;18.20;58.00;;;;;;4990429;28;20110;-62
2021/11/17 10:49:56;;;;;;;9.95;6.18;;;18.20;58.00;;;;;;5004673;28;20723;-62
2021/11/17 10:52:25;;;;;;;9.43;7.22;;;18.20;58.00;;;;;;4990509;28;20093;-63
2021/11/17 10:54:52;;;;;;;9.05;6.32;;;18.20;58.00;;;;;;4990525;28;20030;-61
2021/11/17 10:57:23;;;;;;;8.95;6.32;;;18.20;58.00;;;;;;4990949;28;20037;-62
2021/11/17 10:59:50;;;;;;;9.57;6.45;;;18.20;57.90;;;;;;4991745;28;20023;-62
2021/11/17 11:02:15;;;;;;;9.50;5.90;;;18.20;57.90;;;;;;4993466;28;20026;-60
2021/11/17 11:04:44;;;;;;;9.77;6.35;;;18.20;57.90;;;;;;4992452;28;20019;-62
2021/11/17 11:07:22;;;;;;;8.35;5.95;;;18.20;57.80;;;;;;4986099;28;20026;-62
2021/11/17 11:09:54;;;;;;;7.47;5.78;;;18.10;57.80;;;;;;4987981;28;20023;-62
2021/11/17 11:12:20;;;;;;;9.50;5.90;;;18.10;57.80;;;;;;4988475;28;20042;-63
2021/11/17 11:14:48;;;;;;;9.27;6.10;;;18.10;57.80;;;;;;4973215;28;20393;-62
2021/11/17 11:17:31;;;;;;;7.57;5.82;;;18.20;57.80;;;;;;5005477;28;20524;-64
2021/11/17 11:20:15;;;;;;;10.50;5.82;;;18.20;57.80;;;;;;4990456;28;20417;-62
2021/11/17 11:23:12;;;;;;;7.03;5.50;;;18.10;57.70;;;;;;4990659;28;20080;-64
2021/11/17 11:25:50;;;;;;;6.88;5.55;;;18.10;57.80;;;;;;4978494;28;20674;-62
2021/11/17 11:28:21;;;;;;;8.05;5.82;;;18.10;57.70;;;;;;4985757;28;20660;-64
2021/11/17 11:31:10;;;;;;;7.43;5.82;;;18.10;57.70;;;;;;4989152;28;20019;-62
2021/11/17 11:33:44;;;;;;;6.95;5.78;;;18.10;57.70;;;;;;4989747;28;20519;-62
2021/11/17 11:36:10;;;;;;;7.25;5.60;;;18.10;57.70;;;;;;4989906;28;20097;-62
2021/11/17 11:38:37;;;;;;;6.85;5.15;;;18.10;57.70;;;;;;4989630;28;20030;-60
2021/11/17 11:41:18;;;;;;;6.97;5.15;;;18.10;57.70;;;;;;4989902;28;20048;-64
2021/11/17 11:43:44;;;;;;;5.35;4.82;;;18.10;57.70;;;;;;4989710;28;20126;-64
2021/11/17 11:46:23;;;;;;;6.55;5.15;;;18.10;57.70;;;;;;4989238;28;20385;-62
2021/11/17 11:48:57;;;;;;;8.30;5.53;;;18.10;57.70;;;;;;4988790;28;20026;-62
2021/11/17 11:51:22;;;;;;;8.93;5.65;;;18.10;57.70;;;;;;4988364;28;20033;-64
2021/11/17 11:54:34;;;;;;;7.35;5.07;;;18.10;57.70;;;;;;4989239;28;20018;-64
2021/11/17 11:57:02;;;;;;;9.45;4.90;;;18.10;57.70;;;;;;4984821;28;20428;-64
2021/11/17 11:59:29;;;;;;;6.40;5.20;;;18.10;57.70;;;;;;4989447;28;20444;-64
2021/11/17 12:02:06;;;;;;;6.30;4.95;;;18.10;57.70;;;;;;4989527;28;20373;-63
2021/11/17 12:04:31;;;;;;;6.90;4.82;;;18.10;57.70;;;;;;4988854;28;20827;-64
2021/11/17 12:07:01;;;;;;;6.10;4.93;;;18.10;57.70;;;;;;4989407;28;20023;-64
2021/11/17 12:09:35;;;;;;;5.40;4.32;;;18.10;57.80;;;;;;4971561;28;20536;-64
2021/11/17 12:12:25;;;;;;;6.93;5.38;;;18.10;57.80;;;;;;4987813;28;20026;-63
2021/11/17 12:15:30;;;;;;;8.00;4.68;;;18.10;57.80;;;;;;4988028;28;20105;-64
2021/11/17 12:18:18;;;;;;;6.22;4.55;;;18.00;57.90;;;;;;4989871;28;20521;-61
2021/11/17 12:21:08;;;;;;;5.65;4.72;;;18.00;58.00;;;;;;4982727;28;20030;-64
2021/11/17 12:23:36;;;;;;;6.43;3.95;;;17.90;58.10;;;;;;4987532;28;20061;-63
2021/11/17 12:26:10;;;;;;;5.35;3.92;;;18.00;58.20;;;;;;4988179;28;20058;-64
2021/11/17 12:28:48;;;;;;;6.45;4.50;;;17.90;58.20;;;;;;4971852;28;20022;-62
2021/11/17 12:31:25;;;;;;;5.25;4.25;;;17.90;58.90;;;;;;5001566;28;20022;-64
2021/11/17 12:33:58;;;;;;;6.00;4.57;;;17.90;58.30;;;;;;4988992;28;20037;-64
2021/11/17 12:36:33;;;;;;;5.75;3.70;;;17.90;58.40;;;;;;4971829;28;20567;-64
2021/11/17 12:39:10;;;;;;;;;;;17.90;58.50;;;;;;4988583;28;20035;-65
2021/11/17 12:41:38;;;;;;;7.95;4.40;;;17.90;58.50;;;;;;4988285;28;20432;-64
2021/11/17 12:44:06;;;;;;;4.57;3.70;;;17.90;58.60;;;;;;4971297;28;20022;-64
2021/11/17 12:46:49;;;;;;;5.20;3.53;;;17.90;58.60;;;;;;4989885;28;20022;-63
2021/11/17 12:49:27;;;;;;;4.63;3.58;;;17.80;58.50;;;;;;4982064;28;20058;-63
2021/11/17 12:52:10;;;;;;;5.53;3.67;;;17.80;58.60;;;;;;4971828;28;20080;-62
2021/11/17 12:54:44;;;;;;;4.38;3.47;;;17.80;58.60;;;;;;4987735;28;20393;-62
2021/11/17 12:57:17;;;;;;;4.65;3.65;;;17.90;58.70;;;;;;4982862;28;20038;-63
2021/11/17 12:59:58;;;;;;;5.07;3.38;;;17.90;58.80;;;;;;4987337;28;20032;-63
2021/11/17 13:02:23;;;;;;;4.50;3.53;;;17.90;58.80;;;;;;4987378;28;20497;-63
2021/11/17 13:05:17;;;;;;;4.80;3.53;;;17.90;58.90;;;;;;4987983;28;20113;-63
2021/11/17 13:07:47;;;;;;;4.70;3.30;;;17.80;58.80;;;;;;4981230;28;20022;-62
2021/11/17 13:10:25;;;;;;;3.53;3.08;;;17.80;58.90;;;;;;4988141;28;20066;-62
2021/11/17 13:13:13;;;;;;;3.42;2.78;;;17.80;59.00;;;;;;4988032;28;20109;-63
2021/11/17 13:15:46;;;;;;;4.10;3.17;;;17.80;59.00;;;;;;4988515;28;20034;-63
2021/11/17 13:18:34;;;;;;;3.90;3.15;;;17.80;59.10;;;;;;4980344;28;20026;-62
2021/11/17 13:21:23;;;;;;;3.67;3.00;;;17.90;59.20;;;;;;4985683;28;20022;-62
2021/11/17 13:24:04;;;;;;;3.33;2.80;;;17.80;59.20;;;;;;4987434;28;20048;-63
2021/11/17 13:26:43;;;;;;;3.78;2.90;;;17.80;59.20;;;;;;4987956;28;20446;-62
2021/11/17 13:29:32;;;;;;;5.60;3.47;;;17.80;59.20;;;;;;4988005;28;20065;-63
2021/11/17 13:32:00;;;;;;;4.90;3.15;;;17.80;59.30;;;;;;4983893;28;20038;-62
2021/11/17 13:34:32;;;;;;;4.03;2.90;;;17.80;59.30;;;;;;4987723;28;20030;-62
2021/11/17 13:37:39;;;;;;;3.63;2.55;;;17.80;59.30;;;;;;4988179;28;20045;-62
2021/11/17 13:40:10;;;;;;;3.80;2.90;;;17.80;59.30;;;;;;4930343;29;20070;-62
2021/11/17 13:42:36;;;;;;;5.18;3.42;;;17.80;59.30;;;;;;4978337;28;20179;-64
2021/11/17 13:45:09;;;;;;;4.07;3.13;;;17.80;59.30;;;;;;4986821;28;20291;-62
2021/11/17 13:47:35;;;;;;;3.40;2.75;;;17.80;59.20;;;;;;4970593;28;20097;-63
2021/11/17 13:50:02;;;;;;;3.92;2.63;;;17.80;59.20;;;;;;4986108;28;20306;-63
2021/11/17 13:52:32;;;;;;;3.17;2.42;;;17.80;59.20;;;;;;4988169;28;20242;-62
2021/11/17 13:54:59;;;;;;;3.28;2.67;;;17.80;59.20;;;;;;4970252;28;20050;-62
2021/11/17 13:57:25;;;;;;;4.35;2.72;;;17.80;59.20;;;;;;4988261;28;20044;-62
2021/11/17 13:59:51;;;;;;;3.25;2.63;;;17.70;59.30;;;;;;4989096;28;20034;-61
2021/11/17 14:02:16;;;;;;;5.10;2.83;;;17.70;59.40;;;;;;4988223;28;20038;-63
2021/11/17 14:04:42;;;;;;;3.05;2.47;;;17.70;59.40;;;;;;4987302;28;20023;-63
2021/11/17 14:07:07;;;;;;;3.22;2.47;;;17.70;59.40;;;;;;4988968;28;20472;-63
2021/11/17 14:09:33;;;;;;;3.42;2.80;;;17.70;59.50;;;;;;4989339;28;20049;-63
2021/11/17 14:11:58;;;;;;;3.03;2.55;;;17.70;59.50;;;;;;4973600;28;20041;-63
2021/11/17 14:14:24;;;;;;;2.88;2.30;;;17.70;59.60;;;;;;4974375;28;20582;-63
2021/11/17 14:16:50;;;;;;;3.30;2.50;;;17.70;59.60;;;;;;4991334;28;20038;-62
2021/11/17 14:19:15;;;;;;;3.28;2.28;;;17.70;59.60;;;;;;4991093;28;20026;-63
2021/11/17 14:21:42;;;;;;;3.88;2.10;;;17.70;59.60;;;;;;4974163;28;20065;-62
2021/11/17 14:24:08;;;;;;;4.10;2.17;;;17.70;59.70;;;;;;4989810;28;20359;-63
2021/11/17 14:26:34;;;;;;;2.28;2.00;;;17.70;59.70;;;;;;4973585;28;20034;-63
2021/11/17 14:29:08;;;;;;;3.92;2.60;;;17.70;59.80;;;;;;4990393;28;20014;-63
2021/11/17 14:31:37;;;;;;;3.08;2.08;;;17.60;60.10;;;;;;4989670;28;20026;-62
2021/11/17 14:34:03;;;;;;;2.40;2.05;;;17.60;60.30;;;;;;4990900;28;20028;-63
2021/11/17 14:36:37;;;;;;;2.30;2.10;;;17.60;60.50;;;;;;4989273;28;20023;-63
2021/11/17 14:39:04;;;;;;;2.72;2.30;;;17.60;60.60;;;;;;4989237;28;20497;-63
2021/11/17 14:41:30;;;;;;;2.50;2.10;;;17.50;60.70;;;;;;4957367;28;20018;-63
2021/11/17 14:43:56;;;;;;;2.75;2.33;;;17.60;60.80;;;;;;4990798;28;20034;-63
2021/11/17 14:46:21;;;;;;;3.03;2.50;;;17.50;60.90;;;;;;4973213;28;20022;-63
2021/11/17 14:48:47;;;;;;;2.88;1.65;;;17.50;60.90;;;;;;4972194;28;20401;-63
2021/11/17 14:51:12;;;;;;;2.40;1.88;;;17.50;61.00;;;;;;4989163;28;20150;-63
2021/11/17 14:53:43;;;;;;;2.80;1.98;;;17.50;61.00;;;;;;4988713;28;20026;-63
2021/11/17 14:56:09;;;;;;;3.63;2.10;;;17.60;61.10;;;;;;4990051;28;20063;-63
2021/11/17 14:58:35;;;;;;;2.88;1.63;;;17.60;61.10;;;;;;4989059;28;20022;-61
2021/11/17 15:01:02;;;;;;;2.53;1.80;;;17.60;61.10;;;;;;4973000;28;20022;-63
2021/11/17 15:03:27;;;;;;;2.05;1.60;;;17.60;61.10;;;;;;4973028;28;20019;-63
2021/11/17 15:05:53;;;;;;;1.95;1.73;;;17.50;61.20;;;;;;4988417;28;20351;-63
2021/11/17 15:08:18;;;;;;;1.50;1.40;;;17.50;61.20;;;;;;4972516;28;20022;-63
2021/11/17 15:10:45;;;;;;;2.17;1.73;;;17.60;61.20;;;;;;4989764;28;20483;-62
2021/11/17 15:13:10;;;;;;;2.35;1.90;;;17.60;61.20;;;;;;4986083;28;20096;-63
2021/11/17 15:15:38;;;;;;;2.13;1.92;;;17.60;61.30;;;;;;4972487;28;20026;-63
2021/11/17 15:18:04;;;;;;;2.85;1.92;;;17.60;61.20;;;;;;4988579;28;20092;-63
2021/11/17 15:20:29;;;;;;;3.45;2.00;;;17.60;61.20;;;;;;4988492;28;20732;-63
2021/11/17 15:22:55;;;;;;;2.13;1.77;;;17.60;61.20;;;;;;4989830;28;20202;-63
2021/11/17 15:25:27;;;;;;;2.40;1.85;;;17.60;61.30;;;;;;4989186;28;20022;-63
2021/11/17 15:27:56;;;;;;;2.13;1.90;;;17.50;61.30;;;;;;4989854;28;20126;-63
2021/11/17 15:30:32;;;;;;;2.58;1.40;;;17.60;61.30;;;;;;4972593;28;20081;-63
2021/11/17 15:32:58;;;;;;;2.70;1.85;;;17.60;61.30;;;;;;4098460;28;10001590;-64
2021/11/17 15:35:26;;;;;;;2.22;1.65;;;17.60;61.30;;;;;;4971989;28;20453;-63
2021/11/17 15:37:52;;;;;;;2.08;1.70;;;17.60;61.40;;;;;;4988059;28;20388;-63
2021/11/17 15:40:19;;;;;;;1.98;1.65;;;17.60;61.30;;;;;;4988085;28;20014;-63
2021/11/17 15:42:45;;;;;;;2.22;1.65;;;17.60;61.10;;;;;;4970551;28;20060;-62
2021/11/17 15:45:11;;;;;;;2.53;1.65;;;17.70;61.00;;;;;;5020103;28;20041;-63